Warner, Canada
Current Conditions -  °F | °C
As of 10:54 PM on Thursday 27 Nov 2014 (Local Time) from CYQL Reporting Station
Overcast Overcast  
Wind Chill: 13°   Ceiling: 600
Heat Index: 23°   Visibility: 9mi
Dew Point: 23°   Wind: 9mph
Humidity: 100%   Direction: 290°WNW
Pressure: 29.64"   Gusts: NA
Location:  49.28°N, 112.2°W
Report Text: CYQL 280554Z AUTO 29008KT 9SM OVC006 M05/M05 A2964 RMK SLP078
Loading
Personal Weather Stations






























Interactive Weather Map New forecast layout! Learn more

10-Day Weather Forecast

Advertisements
Track Severe Weather on mobile